createdAt,value
2022-08-07T00:00:41.610Z,1012.56
2022-08-07T00:01:44.099Z,1012.56
2022-08-07T00:02:44.673Z,1012.55
2022-08-07T00:03:47.199Z,1012.56
2022-08-07T00:04:41.668Z,1012.54
2022-08-07T00:05:41.567Z,1012.55
2022-08-07T00:06:51.662Z,1012.53
2022-08-07T00:07:41.817Z,1012.50
2022-08-07T00:08:44.281Z,1012.50
2022-08-07T00:09:50.192Z,1012.48
2022-08-07T00:10:48.146Z,1012.49
2022-08-07T00:11:53.956Z,1012.46
2022-08-07T00:12:56.267Z,1012.45
2022-08-07T00:13:44.711Z,1012.43
2022-08-07T00:14:41.463Z,1012.42
2022-08-07T00:15:46.853Z,1012.40
2022-08-07T00:16:41.650Z,1012.42
2022-08-07T00:17:41.448Z,1012.43
2022-08-07T00:18:41.448Z,1012.40
2022-08-07T00:20:01.498Z,1012.39
2022-08-07T00:20:41.399Z,1012.39
2022-08-07T00:21:55.946Z,1012.38
2022-08-07T00:22:42.211Z,1012.33
2022-08-07T00:23:41.374Z,1012.32
2022-08-07T00:24:41.356Z,1012.30
2022-08-07T00:25:41.723Z,1012.28
2022-08-07T00:26:59.014Z,1012.27
2022-08-07T00:27:53.512Z,1012.24
2022-08-07T00:28:45.593Z,1012.22
2022-08-07T00:29:41.307Z,1012.22
2022-08-07T00:30:41.293Z,1012.24
2022-08-07T00:31:42.220Z,1012.24
2022-08-07T00:32:41.905Z,1012.22
2022-08-07T00:33:41.619Z,1012.25
2022-08-07T00:34:41.250Z,1012.26
2022-08-07T00:35:41.233Z,1012.27
2022-08-07T00:36:43.040Z,1012.28
2022-08-07T00:37:47.600Z,1012.26
2022-08-07T00:38:41.230Z,1012.28
2022-08-07T00:39:45.226Z,1012.30
2022-08-07T00:40:41.293Z,1012.31
2022-08-07T00:41:45.392Z,1012.31
2022-08-07T00:42:41.172Z,1012.29
2022-08-07T00:44:01.466Z,1012.27
2022-08-07T00:44:41.378Z,1012.27
2022-08-07T00:45:41.292Z,1012.27
2022-08-07T00:46:41.119Z,1012.25
2022-08-07T00:48:09.476Z,1012.26
2022-08-07T00:48:42.033Z,1012.25
2022-08-07T00:50:19.338Z,1012.25
2022-08-07T00:50:51.320Z,1012.26
2022-08-07T00:51:57.435Z,1012.25
2022-08-07T00:52:41.196Z,1012.26
2022-08-07T00:53:50.265Z,1012.24
2022-08-07T00:54:41.045Z,1012.23
2022-08-07T00:56:00.524Z,1012.22
2022-08-07T00:56:41.014Z,1012.21
2022-08-07T00:57:44.402Z,1012.21
2022-08-07T00:58:41.237Z,1012.20
2022-08-07T00:59:41.513Z,1012.22
2022-08-07T01:00:43.030Z,1012.24
2022-08-07T01:01:44.736Z,1012.22
2022-08-07T01:02:41.001Z,1012.24
2022-08-07T01:03:56.617Z,1012.22
2022-08-07T01:04:43.214Z,1012.22
2022-08-07T01:05:40.924Z,1012.20
2022-08-07T01:06:40.929Z,1012.19
2022-08-07T01:07:40.897Z,1012.18
2022-08-07T01:08:51.554Z,1012.16
2022-08-07T01:10:07.126Z,1012.16
2022-08-07T05:02:16.935Z,1011.99
2022-08-07T05:03:16.708Z,1012.01
2022-08-07T05:04:17.853Z,1012.02
2022-08-07T05:05:52.138Z,1012.02
2022-08-07T05:06:19.649Z,1012.02
2022-08-07T05:07:20.545Z,1012.04
2022-08-07T05:08:14.752Z,1012.05
2022-08-07T05:09:14.729Z,1012.06
2022-08-07T05:10:14.728Z,1012.06
2022-08-07T05:11:19.475Z,1012.09
2022-08-07T05:12:15.627Z,1012.09
2022-08-07T05:14:52.591Z,1012.09
2022-08-07T05:15:04.814Z,1012.09
2022-08-07T05:15:14.664Z,1012.12
2022-08-07T05:16:14.698Z,1012.11
2022-08-07T05:17:50.442Z,1012.10
2022-08-07T05:18:14.632Z,1012.13
2022-08-07T05:19:14.621Z,1012.11
2022-08-07T05:20:14.631Z,1012.15
2022-08-07T05:21:15.337Z,1012.16
2022-08-07T05:22:27.620Z,1012.18
2022-08-07T05:23:16.009Z,1012.16
2022-08-07T05:24:14.575Z,1012.18
2022-08-07T05:25:26.259Z,1012.18
2022-08-07T05:26:23.741Z,1012.20
2022-08-07T05:28:03.323Z,1012.18
2022-08-07T05:28:26.954Z,1012.18
2022-08-07T05:29:14.505Z,1012.19
2022-08-07T05:30:14.500Z,1012.20
2022-08-07T05:31:16.680Z,1012.20
2022-08-07T05:32:14.499Z,1012.22
2022-08-07T05:33:14.471Z,1012.23
2022-08-07T05:34:15.710Z,1012.23
2022-08-07T05:35:14.455Z,1012.23
2022-08-07T05:36:22.666Z,1012.26
2022-08-07T05:37:14.431Z,1012.25
2022-08-07T05:39:01.140Z,1012.29
2022-08-07T05:40:17.702Z,1012.27
2022-08-07T05:40:23.864Z,1012.30
2022-08-07T05:41:21.825Z,1012.32
2022-08-07T05:42:34.688Z,1012.32
2022-08-07T05:43:19.536Z,1012.34
2022-08-07T05:44:29.330Z,1012.33
2022-08-07T05:45:46.249Z,1012.33
2022-08-07T05:46:19.498Z,1012.30
2022-08-07T05:47:19.501Z,1012.31
2022-08-07T05:48:19.471Z,1012.30
2022-08-07T05:49:19.457Z,1012.32
2022-08-07T05:50:19.446Z,1012.29
2022-08-07T05:51:19.478Z,1012.29
2022-08-07T05:52:20.242Z,1012.33
2022-08-07T05:54:13.598Z,1012.34
2022-08-07T05:54:53.410Z,1012.34
2022-08-07T05:55:19.396Z,1012.33
2022-08-07T05:56:19.392Z,1012.34
2022-08-07T05:57:19.438Z,1012.37
2022-08-07T05:58:19.359Z,1012.36
2022-08-07T05:59:19.357Z,1012.39
2022-08-07T06:00:19.337Z,1012.42
2022-08-07T06:01:19.371Z,1012.40
2022-08-07T06:02:28.797Z,1012.43
2022-08-07T06:03:19.334Z,1012.44
2022-08-07T06:04:19.313Z,1012.43
2022-08-07T06:05:19.652Z,1012.41
2022-08-07T06:06:19.289Z,1012.43
2022-08-07T06:07:22.979Z,1012.46
2022-08-07T06:08:30.922Z,1012.45
2022-08-07T06:09:19.248Z,1012.45
2022-08-07T06:10:19.250Z,1012.46
2022-08-07T06:11:19.219Z,1012.46
2022-08-07T06:12:21.150Z,1012.45
2022-08-07T06:13:19.199Z,1012.47
2022-08-07T06:14:21.211Z,1012.45
2022-08-07T06:15:19.956Z,1012.47
2022-08-07T06:16:19.187Z,1012.44
2022-08-07T06:17:19.162Z,1012.47
2022-08-07T06:18:19.145Z,1012.46
2022-08-07T06:19:57.531Z,1012.43
2022-08-07T06:20:31.717Z,1012.45
2022-08-07T06:22:14.425Z,1012.46
2022-08-07T06:22:27.597Z,1012.47
2022-08-07T06:23:45.799Z,1012.46
2022-08-07T06:24:46.379Z,1012.46
2022-08-07T06:25:19.067Z,1012.47
2022-08-07T06:26:19.057Z,1012.48
2022-08-07T06:27:22.933Z,1012.49
2022-08-07T06:28:19.052Z,1012.47
2022-08-07T06:29:19.023Z,1012.49
2022-08-07T06:30:36.161Z,1012.49
2022-08-07T06:31:19.005Z,1012.46
2022-08-07T06:32:18.991Z,1012.48
2022-08-07T06:33:18.986Z,1012.46
2022-08-07T06:34:19.624Z,1012.47
2022-08-07T06:35:18.955Z,1012.47
2022-08-07T06:36:35.000Z,1012.45
2022-08-07T06:37:20.399Z,1012.47
2022-08-07T06:38:19.894Z,1012.44
2022-08-07T06:40:17.476Z,1012.42
2022-08-07T06:40:27.840Z,1012.42
2022-08-07T06:41:18.896Z,1012.41
2022-08-07T06:42:18.881Z,1012.40
2022-08-07T06:43:20.950Z,1012.41
2022-08-07T06:44:18.879Z,1012.42
2022-08-07T06:45:18.845Z,1012.42
2022-08-07T06:46:20.403Z,1012.45
2022-08-07T06:47:18.831Z,1012.43
2022-08-07T06:48:25.136Z,1012.39
2022-08-07T06:49:18.826Z,1012.41
2022-08-07T06:50:19.132Z,1012.38
2022-08-07T06:51:31.341Z,1012.38
2022-08-07T06:52:18.778Z,1012.37
2022-08-07T06:54:12.106Z,1012.37
2022-08-07T06:55:53.707Z,1012.36
2022-08-07T06:56:07.550Z,1012.36
2022-08-07T06:56:50.014Z,1012.36
2022-08-07T06:57:50.948Z,1012.34
2022-08-07T07:00:12.382Z,1012.34
2022-08-07T07:00:22.048Z,1012.34
2022-08-07T07:00:48.985Z,1012.34
2022-08-07T07:01:50.869Z,1012.30
2022-08-07T07:02:54.553Z,1012.32
2022-08-07T07:03:57.205Z,1012.30
2022-08-07T07:04:54.943Z,1012.31
2022-08-07T07:06:04.026Z,1012.30
2022-08-07T07:07:00.265Z,1012.28
2022-08-07T07:07:59.717Z,1012.28
2022-08-07T07:08:48.908Z,1012.27
2022-08-07T07:09:48.884Z,1012.27
2022-08-07T07:10:56.710Z,1012.28
2022-08-07T07:12:10.611Z,1012.25
2022-08-07T07:12:53.373Z,1012.26
2022-08-07T07:13:57.865Z,1012.28
2022-08-07T07:14:48.837Z,1012.28
2022-08-07T07:15:51.522Z,1012.28
2022-08-07T07:16:50.760Z,1012.28
2022-08-07T07:17:50.524Z,1012.27
2022-08-07T07:18:48.891Z,1012.28
2022-08-07T07:19:57.935Z,1012.26
2022-08-07T07:20:48.771Z,1012.29
2022-08-07T07:22:04.621Z,1012.28
2022-08-07T07:24:05.598Z,1012.30
2022-08-07T07:24:14.422Z,1012.29
2022-08-07T07:24:58.544Z,1012.25
2022-08-07T07:26:34.831Z,1012.28
2022-08-07T07:26:52.019Z,1012.29
2022-08-07T07:27:55.562Z,1012.26
2022-08-07T07:29:40.117Z,1012.28
2022-08-07T07:30:10.087Z,1012.26
2022-08-07T07:30:48.664Z,1012.27
2022-08-07T07:31:48.663Z,1012.27
2022-08-07T07:32:48.632Z,1012.28
2022-08-07T07:33:49.033Z,1012.27
2022-08-07T07:34:48.837Z,1012.25
2022-08-07T07:36:04.503Z,1012.27
2022-08-07T07:36:54.004Z,1012.24
2022-08-07T07:37:59.196Z,1012.23
2022-08-07T07:38:48.568Z,1012.23
2022-08-07T07:39:54.649Z,1012.24
2022-08-07T07:40:48.555Z,1012.21
2022-08-07T07:41:50.789Z,1012.20
2022-08-07T07:42:53.887Z,1012.19
2022-08-07T07:44:16.757Z,1012.20
2022-08-07T07:44:49.594Z,1012.20
2022-08-07T07:46:40.152Z,1012.18
2022-08-07T07:47:23.654Z,1012.18
2022-08-07T07:47:52.451Z,1012.17
2022-08-07T07:48:48.471Z,1012.17
2022-08-07T07:50:34.012Z,1012.15
2022-08-07T07:50:48.440Z,1012.13
2022-08-07T07:51:58.009Z,1012.14
2022-08-07T07:52:48.415Z,1012.10
2022-08-07T07:53:52.596Z,1012.11
2022-08-07T07:54:51.160Z,1012.12
2022-08-07T07:55:54.789Z,1012.12
2022-08-07T07:56:48.374Z,1012.10
2022-08-07T07:57:53.386Z,1012.08
2022-08-07T07:58:48.359Z,1012.10
2022-08-07T07:59:51.798Z,1012.09
2022-08-07T08:00:53.761Z,1012.04
2022-08-07T08:02:02.263Z,1012.05
2022-08-07T08:03:04.522Z,1012.05
2022-08-07T08:04:10.016Z,1012.05
2022-08-07T08:04:50.432Z,1012.06
2022-08-07T08:05:55.016Z,1012.06
2022-08-07T08:06:52.349Z,1012.03
2022-08-07T08:08:00.050Z,1012.05
2022-08-07T08:08:48.371Z,1012.02
2022-08-07T08:09:52.312Z,1011.99
2022-08-07T08:10:48.244Z,1012.01
2022-08-07T08:11:59.129Z,1011.99
2022-08-07T08:12:59.266Z,1011.98
2022-08-07T08:13:54.504Z,1011.97
2022-08-07T08:14:48.178Z,1011.97
2022-08-07T08:15:58.932Z,1011.97
2022-08-07T08:16:49.398Z,1011.97
2022-08-07T08:18:17.665Z,1011.96
2022-08-07T08:18:50.470Z,1011.96
2022-08-07T08:20:18.551Z,1011.95
2022-08-07T08:20:48.117Z,1011.96
2022-08-07T08:21:55.541Z,1011.92
2022-08-07T08:22:55.680Z,1011.94
2022-08-07T08:23:48.090Z,1011.91
2022-08-07T08:24:48.075Z,1011.89
2022-08-07T08:25:48.968Z,1011.90
2022-08-07T08:26:50.474Z,1011.89
2022-08-07T08:27:56.060Z,1011.90
2022-08-07T08:28:48.039Z,1011.89
2022-08-07T08:29:55.500Z,1011.88
2022-08-07T08:30:51.111Z,1011.88
2022-08-07T08:32:16.769Z,1011.85
2022-08-07T08:32:49.106Z,1011.84
2022-08-07T08:33:49.353Z,1011.85
2022-08-07T08:34:47.955Z,1011.82
2022-08-07T08:35:50.953Z,1011.83
2022-08-07T08:36:47.943Z,1011.82
2022-08-07T08:38:00.966Z,1011.82
2022-08-07T08:38:47.917Z,1011.82
2022-08-07T08:39:55.229Z,1011.83
2022-08-07T08:40:47.905Z,1011.84
2022-08-07T08:41:57.403Z,1011.83
2022-08-07T08:42:47.882Z,1011.81
2022-08-07T08:43:58.673Z,1011.80
2022-08-07T08:44:47.855Z,1011.78
2022-08-07T08:45:59.003Z,1011.78
2022-08-07T08:46:47.872Z,1011.79
2022-08-07T08:47:54.619Z,1011.80
2022-08-07T08:48:50.964Z,1011.82
2022-08-07T08:50:02.971Z,1011.80
2022-08-07T08:50:47.787Z,1011.81
2022-08-07T08:52:12.799Z,1011.77
2022-08-07T08:52:53.680Z,1011.78
2022-08-07T08:53:47.764Z,1011.75
2022-08-07T08:54:47.752Z,1011.73
2022-08-07T08:55:54.730Z,1011.72
2022-08-07T08:56:48.001Z,1011.72
2022-08-07T08:57:47.714Z,1011.72
2022-08-07T08:58:47.731Z,1011.73
2022-08-07T08:59:48.020Z,1011.72
2022-08-07T09:00:48.647Z,1011.70
2022-08-07T09:01:49.566Z,1011.72
2022-08-07T09:02:52.392Z,1011.72
2022-08-07T09:03:52.657Z,1011.71
2022-08-07T09:04:47.656Z,1011.68
2022-08-07T09:05:47.781Z,1011.69
2022-08-07T09:06:48.216Z,1011.69
2022-08-07T09:07:58.180Z,1011.69
2022-08-07T09:08:47.643Z,1011.66
2022-08-07T09:09:47.753Z,1011.65
2022-08-07T09:10:47.575Z,1011.65
2022-08-07T09:11:53.357Z,1011.67
2022-08-07T09:12:53.628Z,1011.64
2022-08-07T09:13:47.552Z,1011.62
2022-08-07T09:14:50.997Z,1011.61
2022-08-07T09:16:25.606Z,1011.60
2022-08-07T09:16:47.740Z,1011.61
2022-08-07T09:17:59.576Z,1011.60
2022-08-07T09:18:53.415Z,1011.59
2022-08-07T09:19:51.096Z,1011.57
2022-08-07T09:20:58.572Z,1011.54
2022-08-07T09:22:10.072Z,1011.52
2022-08-07T09:24:52.405Z,1011.51
2022-08-07T09:25:07.027Z,1011.51
2022-08-07T09:25:20.302Z,1011.51
2022-08-07T09:26:13.854Z,1011.50
2022-08-07T09:27:13.835Z,1011.48
2022-08-07T09:30:00.793Z,1011.45
2022-08-07T09:30:09.031Z,1011.44
2022-08-07T09:30:14.146Z,1011.43
2022-08-07T09:31:15.400Z,1011.43
2022-08-07T09:32:16.989Z,1011.41
2022-08-07T09:33:24.225Z,1011.44
2022-08-07T09:34:14.110Z,1011.42
2022-08-07T09:36:01.364Z,1011.43
2022-08-07T09:36:14.077Z,1011.41
2022-08-07T09:37:14.070Z,1011.38
2022-08-07T09:38:14.050Z,1011.38
2022-08-07T09:39:52.464Z,1011.37
2022-08-07T09:40:14.098Z,1011.33
2022-08-07T09:41:14.050Z,1011.33
2022-08-07T09:42:17.175Z,1011.31
2022-08-07T09:43:14.641Z,1011.29
2022-08-07T09:44:19.930Z,1011.32
2022-08-07T09:47:42.521Z,1011.28
2022-08-07T09:48:06.161Z,1011.28
2022-08-07T09:48:19.066Z,1011.25
2022-08-07T09:50:01.622Z,1011.25
2022-08-07T09:50:19.111Z,1011.23
2022-08-07T09:51:25.905Z,1011.21
2022-08-07T09:52:34.473Z,1011.22
2022-08-07T09:53:12.590Z,1011.20
2022-08-07T09:54:16.337Z,1011.17
2022-08-07T09:55:16.899Z,1011.16
2022-08-07T09:56:12.289Z,1011.13
2022-08-07T09:57:12.927Z,1011.11
2022-08-07T09:58:12.052Z,1011.11
2022-08-07T09:59:14.103Z,1011.09
2022-08-07T10:00:14.685Z,1011.07
2022-08-07T10:01:50.359Z,1011.06
2022-08-07T10:02:12.015Z,1011.03
2022-08-07T10:04:05.571Z,1010.99
2022-08-07T10:04:32.577Z,1011.00
2022-08-07T10:05:12.692Z,1010.98
2022-08-07T10:06:12.512Z,1010.95
2022-08-07T10:07:25.900Z,1010.94
2022-08-07T10:08:11.944Z,1010.91
2022-08-07T10:09:15.240Z,1010.89
2022-08-07T10:10:21.847Z,1010.87
2022-08-07T10:11:16.771Z,1010.84
2022-08-07T10:12:18.110Z,1010.85
2022-08-07T10:13:15.897Z,1010.78
2022-08-07T10:14:11.894Z,1010.84
2022-08-07T10:15:15.345Z,1010.83
2022-08-07T10:16:11.881Z,1010.82
2022-08-07T10:17:14.122Z,1010.83
2022-08-07T10:18:11.906Z,1010.80
2022-08-07T10:19:11.819Z,1010.80
2022-08-07T10:20:12.887Z,1010.80
2022-08-07T10:21:19.971Z,1010.76
2022-08-07T10:22:17.352Z,1010.78
2022-08-07T10:23:11.789Z,1010.76
2022-08-07T10:24:12.819Z,1010.72
2022-08-07T10:25:11.755Z,1010.72
2022-08-07T10:26:11.750Z,1010.75
2022-08-07T10:27:11.738Z,1010.71
2022-08-07T10:28:12.701Z,1010.68
2022-08-07T10:29:11.710Z,1010.69
2022-08-07T10:30:12.003Z,1010.66
2022-08-07T10:31:11.694Z,1010.66
2022-08-07T10:32:33.336Z,1010.62
2022-08-07T10:33:14.955Z,1010.62
2022-08-07T10:34:17.817Z,1010.62
2022-08-07T10:35:12.443Z,1010.59
2022-08-07T10:36:12.520Z,1010.60
2022-08-07T10:37:12.391Z,1010.58
2022-08-07T10:38:35.261Z,1010.55
2022-08-07T10:39:11.677Z,1010.54
2022-08-07T10:40:12.623Z,1010.56
2022-08-07T10:41:11.592Z,1010.52
2022-08-07T10:42:21.302Z,1010.53
2022-08-07T10:43:11.586Z,1010.54
2022-08-07T10:44:11.559Z,1010.54
2022-08-07T10:45:11.564Z,1010.54
2022-08-07T10:46:11.539Z,1010.53
2022-08-07T10:47:13.969Z,1010.52
2022-08-07T10:48:11.515Z,1010.52
2022-08-07T10:49:11.507Z,1010.55
2022-08-07T10:50:11.502Z,1010.54
2022-08-07T10:51:16.887Z,1010.50
2022-08-07T10:52:13.792Z,1010.48
2022-08-07T10:53:11.467Z,1010.46
2022-08-07T10:54:11.447Z,1010.44
2022-08-07T10:55:20.798Z,1010.44
2022-08-07T10:56:20.985Z,1010.44
2022-08-07T10:57:11.438Z,1010.42
2022-08-07T10:58:11.427Z,1010.41
2022-08-07T10:59:13.518Z,1010.40
2022-08-07T11:00:36.460Z,1010.37
2022-08-07T11:01:12.358Z,1010.35
2022-08-07T11:02:12.552Z,1010.36
2022-08-07T11:03:12.643Z,1010.35
2022-08-07T11:04:31.391Z,1010.37
2022-08-07T11:05:11.330Z,1010.36
2022-08-07T11:06:11.312Z,1010.34
2022-08-07T11:07:14.942Z,1010.30
2022-08-07T11:08:11.771Z,1010.29
2022-08-07T11:09:11.663Z,1010.30
2022-08-07T11:10:12.507Z,1010.27
2022-08-07T11:11:11.286Z,1010.28
2022-08-07T11:12:11.269Z,1010.30
2022-08-07T11:13:42.398Z,1010.29
2022-08-07T11:15:00.600Z,1010.24
2022-08-07T11:15:17.266Z,1010.24
2022-08-07T11:16:11.209Z,1010.23
2022-08-07T11:17:23.109Z,1010.21
2022-08-07T11:18:12.662Z,1010.27
2022-08-07T11:19:11.199Z,1010.23
2022-08-07T11:20:11.185Z,1010.20
2022-08-07T11:21:11.153Z,1010.16
2022-08-07T11:22:26.339Z,1010.23
2022-08-07T11:23:11.145Z,1010.16
2022-08-07T11:24:11.136Z,1010.17
2022-08-07T11:25:11.154Z,1010.19
2022-08-07T11:26:12.937Z,1010.16
2022-08-07T11:27:13.498Z,1010.11
2022-08-07T11:28:15.344Z,1010.11
2022-08-07T11:29:13.082Z,1010.11
2022-08-07T11:30:18.227Z,1010.11
2022-08-07T11:31:11.416Z,1010.07
2022-08-07T11:32:11.032Z,1010.10
2022-08-07T11:33:14.249Z,1010.08
2022-08-07T11:34:11.028Z,1009.97
2022-08-07T11:35:11.017Z,1009.99
2022-08-07T11:36:11.026Z,1010.00
2022-08-07T11:37:11.778Z,1009.99
2022-08-07T11:38:17.225Z,1009.99
2022-08-07T11:39:14.483Z,1010.02
2022-08-07T11:40:11.086Z,1009.98
2022-08-07T11:41:10.943Z,1009.98
2022-08-07T11:42:16.849Z,1009.94
2022-08-07T11:43:10.919Z,1009.91
2022-08-07T11:44:14.266Z,1009.89
2022-08-07T11:45:12.314Z,1009.87
2022-08-07T11:46:10.920Z,1009.82
2022-08-07T11:47:10.898Z,1009.86
2022-08-07T11:48:18.045Z,1009.85
2022-08-07T11:49:51.494Z,1009.89
2022-08-07T11:50:35.399Z,1009.86
2022-08-07T11:51:10.827Z,1009.88
2022-08-07T11:52:10.827Z,1009.89
2022-08-07T11:53:10.808Z,1009.83
2022-08-07T11:54:10.818Z,1009.85
2022-08-07T11:55:18.520Z,1009.78
2022-08-07T11:56:27.518Z,1009.77
2022-08-07T11:57:12.844Z,1009.78
2022-08-07T11:58:16.350Z,1009.82
2022-08-07T12:00:08.236Z,1009.81
2022-08-07T12:00:28.365Z,1009.81
2022-08-07T12:01:10.728Z,1009.76
2022-08-07T12:02:20.655Z,1009.78
2022-08-07T12:03:45.022Z,1009.73
2022-08-07T12:04:10.718Z,1009.75
2022-08-07T12:05:15.237Z,1009.72
2022-08-07T12:06:39.774Z,1009.69
2022-08-07T12:07:27.659Z,1009.60
2022-08-07T12:08:25.443Z,1009.63
2022-08-07T12:09:16.145Z,1009.62
2022-08-07T12:10:10.649Z,1009.63
2022-08-07T12:11:21.019Z,1009.63
2022-08-07T12:12:12.181Z,1009.63
2022-08-07T12:13:11.627Z,1009.65
2022-08-07T12:14:10.591Z,1009.61
2022-08-07T12:15:17.141Z,1009.63
2022-08-07T12:16:10.577Z,1009.65
2022-08-07T12:17:10.566Z,1009.64
2022-08-07T12:18:11.418Z,1009.60
2022-08-07T12:19:10.542Z,1009.61
2022-08-07T12:20:20.843Z,1009.60
2022-08-07T12:21:10.520Z,1009.58
2022-08-07T12:22:37.239Z,1009.61
2022-08-07T12:23:10.507Z,1009.64
2022-08-07T12:24:37.644Z,1009.56
2022-08-07T12:25:10.482Z,1009.60
2022-08-07T12:26:28.634Z,1009.58
2022-08-07T12:27:13.241Z,1009.57
2022-08-07T12:28:11.135Z,1009.57
2022-08-07T12:29:11.328Z,1009.56
2022-08-07T12:30:10.422Z,1009.53
2022-08-07T12:31:10.401Z,1009.52
2022-08-07T12:32:13.099Z,1009.49
2022-08-07T12:33:18.892Z,1009.48
2022-08-07T12:34:10.397Z,1009.47
2022-08-07T12:35:10.358Z,1009.42
2022-08-07T12:36:10.978Z,1009.40
2022-08-07T12:37:16.585Z,1009.39
2022-08-07T12:38:16.933Z,1009.37
2022-08-07T12:39:42.749Z,1009.34
2022-08-07T12:40:36.192Z,1009.29
2022-08-07T12:41:10.349Z,1009.34
2022-08-07T12:42:10.297Z,1009.34
2022-08-07T12:43:10.350Z,1009.33
2022-08-07T12:44:13.095Z,1009.35
2022-08-07T12:45:10.258Z,1009.33
2022-08-07T12:46:10.267Z,1009.30
2022-08-07T12:47:10.235Z,1009.31
2022-08-07T12:48:13.045Z,1009.28
2022-08-07T12:49:39.729Z,1009.32
2022-08-07T12:50:38.352Z,1009.30
2022-08-07T12:51:17.142Z,1009.29
2022-08-07T12:52:14.011Z,1009.31
2022-08-07T12:53:17.891Z,1009.28
2022-08-07T12:54:37.030Z,1009.28
2022-08-07T12:55:17.568Z,1009.32
2022-08-07T12:56:10.191Z,1009.33
2022-08-07T12:57:10.337Z,1009.33
2022-08-07T12:58:10.119Z,1009.33
2022-08-07T12:59:10.108Z,1009.33
2022-08-07T13:00:16.437Z,1009.34
2022-08-07T13:01:10.125Z,1009.36
2022-08-07T13:02:10.349Z,1009.33
2022-08-07T13:03:13.078Z,1009.30
2022-08-07T13:04:10.087Z,1009.30
2022-08-07T13:05:14.982Z,1009.27
2022-08-07T13:06:21.865Z,1009.28
2022-08-07T13:07:10.049Z,1009.33
2022-08-07T13:08:14.096Z,1009.36
2022-08-07T13:09:33.416Z,1009.31
2022-08-07T13:10:39.683Z,1009.22
2022-08-07T13:11:09.975Z,1009.21
2022-08-07T13:12:13.250Z,1009.21
2022-08-07T13:13:10.005Z,1009.20
2022-08-07T13:14:09.947Z,1009.17
2022-08-07T13:15:09.939Z,1009.21
2022-08-07T13:16:09.923Z,1009.21
2022-08-07T13:17:09.910Z,1009.17
2022-08-07T13:18:09.900Z,1009.12
2022-08-07T13:19:18.204Z,1009.12
2022-08-07T13:20:09.891Z,1009.14
2022-08-07T13:21:09.867Z,1009.07
2022-08-07T13:22:19.656Z,1009.07
2022-08-07T13:24:02.011Z,1009.03
2022-08-07T13:24:11.449Z,1009.05
2022-08-07T13:25:09.835Z,1009.01
2022-08-07T13:26:15.724Z,1009.02
2022-08-07T13:27:09.811Z,1009.01
2022-08-07T13:28:13.128Z,1009.05
2022-08-07T13:29:09.783Z,1009.01
2022-08-07T13:30:19.144Z,1009.00
2022-08-07T13:31:13.117Z,1009.00
2022-08-07T13:32:31.224Z,1009.00
2022-08-07T13:34:31.954Z,1009.02
2022-08-07T13:34:39.309Z,1008.99
2022-08-07T13:35:09.744Z,1009.04
2022-08-07T13:36:09.723Z,1009.04
2022-08-07T13:37:10.973Z,1009.00
2022-08-07T13:38:09.714Z,1009.03
2022-08-07T13:39:12.876Z,1009.05
2022-08-07T13:40:34.884Z,1008.95
2022-08-07T13:41:09.736Z,1008.94
2022-08-07T13:42:09.656Z,1008.94
2022-08-07T13:43:12.102Z,1008.97
2022-08-07T13:44:10.465Z,1008.91
2022-08-07T13:45:20.864Z,1008.91
2022-08-07T13:46:25.599Z,1008.90
2022-08-07T13:47:09.901Z,1008.92
2022-08-07T13:48:10.636Z,1008.91
2022-08-07T13:50:34.654Z,1008.94
2022-08-07T13:51:01.459Z,1008.90
2022-08-07T13:51:28.058Z,1008.92
2022-08-07T13:52:31.801Z,1008.95
2022-08-07T13:53:09.538Z,1008.93
2022-08-07T13:54:09.535Z,1008.90
2022-08-07T13:55:11.049Z,1008.83
2022-08-07T13:56:09.507Z,1008.87
2022-08-07T13:57:09.526Z,1008.88
2022-08-07T13:58:09.484Z,1008.81
2022-08-07T13:59:10.366Z,1008.84
2022-08-07T14:00:13.409Z,1008.86
2022-08-07T14:01:09.574Z,1008.86
2022-08-07T14:02:10.167Z,1008.83
2022-08-07T14:03:09.462Z,1008.85
2022-08-07T14:04:09.484Z,1008.87
2022-08-07T14:05:09.494Z,1008.84
2022-08-07T14:06:09.409Z,1008.87
2022-08-07T14:07:10.066Z,1008.86
2022-08-07T14:08:09.391Z,1008.85
2022-08-07T14:09:09.386Z,1008.81
2022-08-07T14:10:21.543Z,1008.82
2022-08-07T14:11:15.337Z,1008.78
2022-08-07T14:12:10.463Z,1008.74
2022-08-07T14:13:09.335Z,1008.74
2022-08-07T14:14:09.327Z,1008.71
2022-08-07T14:15:09.332Z,1008.67
2022-08-07T14:16:15.352Z,1008.70
2022-08-07T14:17:13.158Z,1008.70
2022-08-07T14:18:28.610Z,1008.72
2022-08-07T14:19:09.278Z,1008.63
2022-08-07T14:20:41.883Z,1008.68
2022-08-07T14:21:20.803Z,1008.68
2022-08-07T14:22:10.793Z,1008.63
2022-08-07T14:23:09.251Z,1008.59
2022-08-07T14:24:09.281Z,1008.60
2022-08-07T14:25:09.201Z,1008.61
2022-08-07T14:26:09.197Z,1008.58
2022-08-07T14:28:11.492Z,1008.58
2022-08-07T14:28:17.568Z,1008.57
2022-08-07T14:30:06.157Z,1008.51
2022-08-07T14:30:27.742Z,1008.50
2022-08-07T14:31:09.153Z,1008.54
2022-08-07T14:32:09.159Z,1008.52
2022-08-07T14:33:09.122Z,1008.51
2022-08-07T14:34:10.091Z,1008.45
2022-08-07T14:35:09.107Z,1008.47
2022-08-07T14:36:09.111Z,1008.51
2022-08-07T14:37:16.304Z,1008.48
2022-08-07T14:38:09.120Z,1008.49
2022-08-07T14:39:09.105Z,1008.46
2022-08-07T14:40:15.655Z,1008.43
2022-08-07T14:41:12.384Z,1008.41
2022-08-07T15:52:02.575Z,1008.46
2022-08-07T15:52:09.554Z,1008.02
2022-08-07T15:53:07.546Z,1008.03
2022-08-07T15:54:11.902Z,1008.02
2022-08-07T15:55:09.063Z,1008.04
2022-08-07T15:56:07.519Z,1008.02
2022-08-07T15:57:07.522Z,1008.03
2022-08-07T15:58:10.489Z,1008.03
2022-08-07T15:59:07.490Z,1008.02
2022-08-07T16:00:07.481Z,1008.01
2022-08-07T16:01:07.503Z,1008.02
2022-08-07T16:02:07.517Z,1008.04
2022-08-07T16:03:08.548Z,1008.03
2022-08-07T16:04:14.247Z,1008.02
2022-08-07T16:05:15.297Z,1008.05
2022-08-07T16:06:07.414Z,1008.00
2022-08-07T16:08:28.259Z,1008.04
2022-08-07T16:08:38.852Z,1008.07
2022-08-07T16:09:07.673Z,1008.07
2022-08-07T16:10:09.614Z,1008.05
2022-08-07T16:11:26.914Z,1008.02
2022-08-07T16:12:07.355Z,1008.03
2022-08-07T16:13:17.441Z,1008.01
2022-08-07T16:14:07.354Z,1008.01
2022-08-07T16:15:07.317Z,1008.01
2022-08-07T16:16:47.540Z,1007.98
2022-08-07T16:17:15.994Z,1007.99
2022-08-07T16:18:07.292Z,1007.99
2022-08-07T16:19:09.519Z,1007.97
2022-08-07T16:20:07.293Z,1007.96
2022-08-07T16:22:01.457Z,1007.95
2022-08-07T16:22:30.167Z,1007.96
2022-08-07T16:23:09.893Z,1007.96
2022-08-07T16:24:09.150Z,1007.96
2022-08-07T16:25:07.738Z,1007.98
2022-08-07T16:26:07.229Z,1007.99
2022-08-07T16:27:17.915Z,1007.95
2022-08-07T16:28:10.352Z,1007.98
2022-08-07T16:30:11.879Z,1007.97
2022-08-07T16:30:35.849Z,1007.97
2022-08-07T16:31:10.028Z,1007.95
2022-08-07T16:32:07.141Z,1007.95
2022-08-07T16:34:01.304Z,1007.99
2022-08-07T16:34:18.172Z,1007.92
2022-08-07T16:35:50.271Z,1007.94
2022-08-07T16:36:07.103Z,1007.93
2022-08-07T16:38:05.673Z,1007.93
2022-08-07T16:38:13.830Z,1007.91
2022-08-07T16:39:10.085Z,1007.95
2022-08-07T16:40:09.558Z,1007.96
2022-08-07T16:41:07.148Z,1007.94
2022-08-07T16:42:07.030Z,1007.95
2022-08-07T16:43:07.027Z,1007.95
2022-08-07T16:44:31.793Z,1007.95
2022-08-07T16:45:14.982Z,1007.96
2022-08-07T16:46:21.070Z,1007.98
2022-08-07T16:47:16.732Z,1007.98
2022-08-07T16:48:06.982Z,1007.93
2022-08-07T16:50:28.095Z,1007.96
2022-08-07T16:50:57.736Z,1007.92
2022-08-07T16:51:57.842Z,1007.93
2022-08-07T16:52:50.676Z,1007.94
2022-08-07T16:53:55.595Z,1007.92
2022-08-07T16:54:09.623Z,1007.92
2022-08-07T16:55:08.361Z,1007.92
2022-08-07T16:56:06.891Z,1007.92
2022-08-07T16:57:06.881Z,1007.93
2022-08-07T16:58:08.015Z,1007.90
2022-08-07T16:59:14.484Z,1007.92
2022-08-07T17:00:07.844Z,1007.96
2022-08-07T17:01:07.943Z,1007.94
2022-08-07T17:02:06.821Z,1007.91
2022-08-07T17:03:07.025Z,1007.88
2022-08-07T17:04:07.640Z,1007.90
2022-08-07T17:05:06.795Z,1007.88
2022-08-07T17:06:29.649Z,1007.91
2022-08-07T17:07:06.796Z,1007.90
2022-08-07T17:08:09.153Z,1007.88